Time;durP1;ratioP1;P1;durP2;ratioP2;P2;SDS_P1;SDS_P2;PMS_P1;PMS_P2;Temp;Humidity;BMP_temperature;BMP_pressure;BME280_temperature;BME280_humidity;BME280_pressure;Samples;Min_cycle;Max_cycle;Signal;HPM_P1;HPM_P2
2022/11/13 00:01:13;;;;;;;12.27;10.00;;;11.30;82.50;;;-142.21;100.00;112049.66;5006305;28;20517;-72
2022/11/13 00:03:41;;;;;;;12.30;10.67;;;11.30;82.70;;;-142.21;100.00;112049.66;5003429;28;20522;-72
2022/11/13 00:06:10;;;;;;;10.53;9.43;;;11.30;82.50;;;-142.21;100.00;112049.66;5012070;28;20478;-72
2022/11/13 00:08:37;;;;;;;9.97;8.93;;;11.30;82.30;;;-142.21;100.00;112049.66;4997522;28;20951;-73
2022/11/13 00:11:07;;;;;;;11.20;9.27;;;11.30;82.30;;;-142.21;100.00;112049.66;4992035;28;20485;-73
2022/11/13 00:13:35;;;;;;;10.13;9.03;;;11.30;82.20;;;-142.21;100.00;112049.66;5003709;28;20544;-73
2022/11/13 00:16:04;;;;;;;11.10;9.90;;;11.30;82.20;;;-142.21;100.00;112049.66;5010394;28;21010;-73
2022/11/13 00:18:36;;;;;;;9.90;8.80;;;11.30;82.20;;;-142.21;100.00;112049.66;4997815;28;20495;-73
2022/11/13 00:21:07;;;;;;;10.57;9.43;;;11.20;82.10;;;-142.21;100.00;112049.66;4994469;28;20467;-73
2022/11/13 00:23:36;;;;;;;9.73;8.73;;;11.20;82.20;;;-142.21;100.00;112049.66;5006551;28;21024;-72
2022/11/13 00:26:09;;;;;;;10.10;9.10;;;11.20;82.20;;;-142.21;100.00;112049.66;5003425;28;21028;-72
2022/11/13 00:28:36;;;;;;;9.50;8.50;;;11.20;82.00;;;-142.21;100.00;112049.66;5008799;28;20494;-72
2022/11/13 00:31:05;;;;;;;10.67;9.57;;;11.20;82.10;;;-142.21;100.00;112049.66;4991796;28;20524;-72
2022/11/13 00:33:35;;;;;;;11.50;9.60;;;11.20;82.20;;;-142.21;100.00;112049.66;4983783;28;20453;-71
2022/11/13 00:36:04;;;;;;;10.07;8.87;;;11.20;83.00;;;-142.21;100.00;112049.66;5007565;28;20443;-73
2022/11/13 00:38:32;;;;;;;10.07;8.97;;;11.20;82.30;;;-142.21;100.00;112049.66;4992273;28;20569;-73
2022/11/13 00:40:59;;;;;;;10.63;9.07;;;11.20;82.20;;;-142.21;100.00;112049.66;4993694;28;20443;-73
2022/11/13 00:43:27;;;;;;;10.23;8.70;;;11.20;82.30;;;-142.21;100.00;112049.66;5000383;28;20451;-72
2022/11/13 00:45:55;;;;;;;9.33;8.43;;;11.20;82.30;;;-142.21;100.00;112049.66;5000692;28;20814;-72
2022/11/13 00:48:22;;;;;;;8.33;7.50;;;11.20;82.00;;;-142.21;100.00;112049.66;5010469;28;20450;-72
2022/11/13 00:50:52;;;;;;;8.73;7.83;;;11.20;81.70;;;-142.21;100.00;112049.66;5011813;28;20449;-72
2022/11/13 00:53:19;;;;;;;8.60;7.10;;;11.20;81.50;;;-142.21;100.00;112049.66;5011657;28;20446;-72
2022/11/13 00:55:47;;;;;;;8.70;7.80;;;11.20;81.50;;;-142.21;100.00;112049.66;5000972;28;20475;-72
2022/11/13 00:58:15;;;;;;;8.20;7.23;;;11.20;81.50;;;-142.21;100.00;112049.66;5008700;28;20912;-73
2022/11/13 01:00:46;;;;;;;8.37;7.57;;;11.20;81.20;;;-142.21;100.00;112049.66;4993241;28;20461;-73
2022/11/13 01:03:15;;;;;;;8.40;7.60;;;11.20;81.20;;;-142.21;100.00;112049.66;5003200;28;20446;-72
2022/11/13 01:05:45;;;;;;;8.53;7.73;;;11.10;81.10;;;-142.21;100.00;112049.66;5009531;28;20491;-73
2022/11/13 01:08:15;;;;;;;8.27;7.47;;;11.10;81.30;;;-142.21;100.00;112049.66;4999605;28;20434;-72
2022/11/13 01:10:46;;;;;;;8.67;7.70;;;11.10;81.30;;;-142.21;100.00;112049.66;5000421;28;20482;-72
2022/11/13 01:13:14;;;;;;;8.80;7.93;;;11.20;81.20;;;-142.21;100.00;112049.66;5000737;28;20450;-72
2022/11/13 01:15:42;;;;;;;9.00;8.10;;;11.10;81.10;;;-142.21;100.00;112049.66;5000890;28;20446;-73
2022/11/13 01:18:10;;;;;;;10.57;9.50;;;11.10;81.20;;;-142.21;100.00;112049.66;5003720;28;20512;-72
2022/11/13 01:20:38;;;;;;;8.20;7.40;;;11.10;81.30;;;-142.21;100.00;112049.66;5011330;28;20461;-73
2022/11/13 01:23:05;;;;;;;9.17;7.93;;;11.10;81.30;;;-142.21;100.00;112049.66;5009302;28;20987;-73
2022/11/13 01:25:34;;;;;;;9.40;8.50;;;11.10;81.10;;;-142.21;100.00;112049.66;4992558;28;20439;-72
2022/11/13 01:28:01;;;;;;;8.33;7.53;;;11.10;81.00;;;-142.21;100.00;112049.66;5004769;28;20453;-72
2022/11/13 01:30:28;;;;;;;8.87;7.97;;;11.10;81.10;;;-142.21;100.00;112049.66;5010361;28;20468;-72
2022/11/13 01:32:55;;;;;;;8.90;8.10;;;11.00;81.00;;;-142.21;100.00;112049.66;4983873;28;20537;-73
2022/11/13 01:35:22;;;;;;;9.30;8.40;;;11.00;81.00;;;-142.21;100.00;112049.66;5009074;28;20445;-73
2022/11/13 01:37:49;;;;;;;10.60;8.13;;;11.00;81.00;;;-142.21;100.00;112049.66;4999421;28;20874;-73
2022/11/13 01:40:17;;;;;;;8.50;7.57;;;11.00;80.90;;;-142.21;100.00;112049.66;5006801;28;20450;-72
2022/11/13 01:42:45;;;;;;;8.83;7.60;;;11.00;80.80;;;-142.21;100.00;112049.66;5007468;28;20449;-72
2022/11/13 01:46:12;;;;;;;8.30;7.50;;;11.00;80.80;;;-142.21;100.00;112049.66;4996500;28;20451;-72
2022/11/13 01:48:45;;;;;;;9.73;8.40;;;11.00;80.90;;;-142.21;100.00;112049.66;4979517;28;20446;-72
2022/11/13 01:51:24;;;;;;;8.73;7.93;;;10.90;80.80;;;-142.21;100.00;112049.66;4973183;28;20972;-72
2022/11/13 01:53:52;;;;;;;8.10;7.40;;;10.90;80.70;;;-142.21;100.00;112049.66;4997556;28;20443;-73
2022/11/13 01:56:20;;;;;;;8.57;7.77;;;10.90;80.50;;;-142.21;100.00;112049.66;4996336;28;20445;-73
2022/11/13 01:58:57;;;;;;;8.73;7.93;;;10.80;80.70;;;-142.21;100.00;112049.66;5005640;28;20481;-71
2022/11/13 02:01:24;;;;;;;9.17;8.27;;;10.80;80.60;;;-142.21;100.00;112049.66;5012495;28;20466;-74
2022/11/13 02:03:51;;;;;;;9.00;8.10;;;10.80;80.60;;;-142.21;100.00;112049.66;5006714;28;20846;-72
2022/11/13 02:06:21;;;;;;;8.97;7.90;;;10.80;80.70;;;-142.21;100.00;112049.66;5011320;28;20457;-72
2022/11/13 02:08:51;;;;;;;10.13;8.90;;;10.80;80.70;;;-142.21;100.00;112049.66;4996488;28;20446;-72
2022/11/13 02:11:19;;;;;;;9.47;8.53;;;10.80;80.70;;;-142.21;100.00;112049.66;5001342;28;20858;-71
2022/11/13 02:13:49;;;;;;;9.50;8.50;;;10.80;80.60;;;-142.21;100.00;112049.66;4984021;28;20636;-72
2022/11/13 02:16:18;;;;;;;9.43;8.53;;;10.70;80.60;;;-142.21;100.00;112049.66;5014120;28;20446;-72
2022/11/13 02:18:46;;;;;;;10.23;8.90;;;10.80;80.80;;;-142.21;100.00;112049.66;5009561;28;20485;-72
2022/11/13 02:21:34;;;;;;;9.53;8.63;;;10.70;80.70;;;-142.21;100.00;112049.66;5012867;28;20442;-73
2022/11/13 02:24:20;;;;;;;9.37;8.47;;;10.80;80.80;;;-142.21;100.00;112049.66;5005250;28;20453;-72
2022/11/13 02:26:52;;;;;;;9.67;8.10;;;10.80;80.80;;;-142.21;100.00;112049.66;4996016;28;20443;-72
2022/11/13 02:29:19;;;;;;;9.17;8.27;;;10.80;80.80;;;-142.21;100.00;112049.66;5009848;28;20431;-72
2022/11/13 02:31:46;;;;;;;9.27;8.23;;;10.70;80.70;;;-142.21;100.00;112049.66;4998748;28;20450;-73
2022/11/13 02:34:14;;;;;;;9.57;8.67;;;10.70;80.50;;;-142.21;100.00;112049.66;5000654;28;20454;-72
2022/11/13 02:36:42;;;;;;;9.73;8.10;;;10.70;80.60;;;-142.21;100.00;112049.66;4995736;28;20911;-72
2022/11/13 02:39:12;;;;;;;9.53;8.00;;;10.70;80.50;;;-142.21;100.00;112049.66;5013574;28;20482;-72
2022/11/13 02:41:41;;;;;;;9.17;8.27;;;10.70;80.70;;;-142.21;100.00;112049.66;5011285;28;20442;-72
2022/11/13 02:44:09;;;;;;;9.27;8.37;;;10.70;80.70;;;-142.21;100.00;112049.66;5002999;28;20811;-72
2022/11/13 02:46:37;;;;;;;10.30;9.27;;;10.70;80.70;;;-142.21;100.00;112049.66;5003337;28;20482;-72
2022/11/13 02:49:04;;;;;;;9.37;8.47;;;10.70;80.70;;;-142.21;100.00;112049.66;5004271;28;20809;-72
2022/11/13 02:51:32;;;;;;;10.30;8.70;;;10.70;81.30;;;-142.21;100.00;112049.66;5011528;28;20446;-72
2022/11/13 02:53:59;;;;;;;10.30;9.17;;;10.70;80.50;;;-142.21;100.00;112049.66;5013530;28;20450;-72
2022/11/13 02:56:26;;;;;;;9.50;8.50;;;10.70;80.50;;;-142.21;100.00;112049.66;4998421;28;20547;-72
2022/11/13 02:58:55;;;;;;;10.20;9.10;;;10.80;80.70;;;-142.21;100.00;112049.66;4995622;28;20494;-72
2022/11/13 03:01:22;;;;;;;10.03;9.03;;;10.80;80.80;;;-142.21;100.00;112049.66;4994198;28;20447;-72
2022/11/13 03:03:49;;;;;;;10.07;8.97;;;10.80;80.50;;;-142.21;100.00;112049.66;5003877;28;20811;-73
2022/11/13 03:06:16;;;;;;;10.57;9.47;;;10.70;80.60;;;-142.21;100.00;112049.66;4993896;28;21121;-72
2022/11/13 03:08:43;;;;;;;10.40;9.33;;;10.70;81.40;;;-142.21;100.00;112049.66;4994825;28;20449;-73
2022/11/13 03:11:12;;;;;;;9.87;8.70;;;10.70;80.40;;;-142.21;100.00;112049.66;4993581;28;20489;-73
2022/11/13 03:13:40;;;;;;;10.70;8.90;;;10.70;80.50;;;-142.21;100.00;112049.66;4984244;28;20955;-72
2022/11/13 03:16:12;;;;;;;10.13;9.07;;;10.70;80.30;;;-142.21;100.00;112049.66;4993383;28;20538;-73
2022/11/13 03:18:39;;;;;;;9.73;8.73;;;10.70;80.40;;;-142.21;100.00;112049.66;5010392;28;20493;-74
2022/11/13 03:21:09;;;;;;;9.83;8.83;;;10.70;80.40;;;-142.21;100.00;112049.66;5004177;28;20450;-73
2022/11/13 03:23:38;;;;;;;10.43;9.43;;;10.70;80.70;;;-142.21;100.00;112049.66;5009730;28;20470;-72
2022/11/13 03:26:07;;;;;;;9.80;8.80;;;10.70;80.40;;;-142.21;100.00;112049.66;5012799;28;20787;-72
2022/11/13 03:28:35;;;;;;;10.73;9.47;;;10.70;80.30;;;-142.21;100.00;112049.66;5011680;28;20446;-72
2022/11/13 03:31:02;;;;;;;9.97;8.97;;;10.70;80.30;;;-142.21;100.00;112049.66;5013391;28;20454;-73
2022/11/13 03:33:31;;;;;;;9.83;8.83;;;10.70;80.40;;;-142.21;100.00;112049.66;5008376;28;20446;-73
2022/11/13 03:35:58;;;;;;;10.27;9.27;;;10.70;80.30;;;-142.21;100.00;112049.66;5013023;28;20455;-73
2022/11/13 03:38:26;;;;;;;10.03;8.80;;;10.60;80.30;;;-142.21;100.00;112049.66;5011910;28;20489;-73
2022/11/13 03:40:53;;;;;;;9.57;8.57;;;10.60;80.50;;;-142.21;100.00;112049.66;5011712;28;20456;-73
2022/11/13 03:43:20;;;;;;;9.07;8.17;;;10.60;80.40;;;-142.21;100.00;112049.66;5002021;28;20451;-73
2022/11/13 03:45:48;;;;;;;10.53;9.43;;;10.60;80.30;;;-142.21;100.00;112049.66;4996335;28;20454;-73
2022/11/13 03:48:16;;;;;;;12.53;9.10;;;10.60;80.30;;;-142.21;100.00;112049.66;5012199;28;20453;-73
2022/11/13 03:50:48;;;;;;;9.77;8.77;;;10.60;80.20;;;-142.21;100.00;112049.66;5011209;28;20533;-72
2022/11/13 03:53:16;;;;;;;10.27;9.27;;;10.60;80.30;;;-142.21;100.00;112049.66;5007971;28;20947;-72
2022/11/13 03:55:44;;;;;;;10.90;9.67;;;10.60;80.30;;;-142.21;100.00;112049.66;5006870;28;20454;-72
2022/11/13 03:58:12;;;;;;;9.43;8.40;;;10.60;80.40;;;-142.21;100.00;112049.66;4996926;28;21002;-72
2022/11/13 04:00:41;;;;;;;9.00;8.10;;;10.50;80.50;;;-142.21;100.00;112049.66;5009145;28;20526;-72
2022/11/13 04:03:09;;;;;;;10.17;9.10;;;10.50;80.50;;;-142.21;100.00;112049.66;4993218;28;20474;-72
2022/11/13 04:05:36;;;;;;;9.87;8.87;;;10.50;80.50;;;-142.21;100.00;112049.66;4999538;28;20471;-73
2022/11/13 04:08:06;;;;;;;9.47;8.57;;;10.60;81.30;;;-142.21;100.00;112049.66;5009939;28;20476;-72
2022/11/13 04:10:33;;;;;;;9.97;8.97;;;10.50;80.50;;;-142.21;100.00;112049.66;4999968;28;20482;-72
2022/11/13 04:13:00;;;;;;;9.97;8.47;;;10.50;80.30;;;-142.21;100.00;112049.66;5012048;28;20521;-72
2022/11/13 04:15:27;;;;;;;9.93;8.77;;;10.50;80.50;;;-142.21;100.00;112049.66;5011564;28;20521;-73
2022/11/13 04:17:54;;;;;;;9.43;8.10;;;10.50;80.50;;;-142.21;100.00;112049.66;5012439;28;20934;-72
2022/11/13 04:20:21;;;;;;;9.63;8.60;;;10.50;80.50;;;-142.21;100.00;112049.66;5011866;28;20957;-73
2022/11/13 04:22:49;;;;;;;10.10;8.53;;;10.50;80.60;;;-142.21;100.00;112049.66;5012437;28;20442;-71
2022/11/13 04:25:17;;;;;;;9.70;8.70;;;10.50;80.60;;;-142.21;100.00;112049.66;4973595;28;20975;-74
2022/11/13 04:27:45;;;;;;;9.53;8.53;;;10.50;80.50;;;-142.21;100.00;112049.66;5011599;28;20484;-73
2022/11/13 04:30:12;;;;;;;10.03;8.63;;;10.50;80.50;;;-142.21;100.00;112049.66;5011407;28;20946;-71
2022/11/13 04:32:40;;;;;;;10.40;8.33;;;10.50;80.60;;;-142.21;100.00;112049.66;4982872;28;20450;-73
2022/11/13 04:35:09;;;;;;;10.10;8.77;;;10.40;80.40;;;-142.21;100.00;112049.66;4983358;28;20792;-71
2022/11/13 04:37:36;;;;;;;9.20;8.30;;;10.40;80.40;;;-142.21;100.00;112049.66;5008906;28;20960;-72
2022/11/13 04:40:04;;;;;;;9.60;8.23;;;10.40;80.40;;;-142.21;100.00;112049.66;4992837;28;20485;-73
2022/11/13 04:42:49;;;;;;;8.73;7.83;;;10.40;80.40;;;-142.21;100.00;112049.66;4991885;28;20932;-73
2022/11/13 04:45:19;;;;;;;10.97;8.80;;;10.50;80.70;;;-142.21;100.00;112049.66;4982030;28;20450;-73
2022/11/13 04:47:48;;;;;;;9.03;8.13;;;10.50;80.60;;;-142.21;100.00;112049.66;4994909;28;20453;-72
2022/11/13 04:50:17;;;;;;;9.07;8.17;;;10.50;80.50;;;-142.21;100.00;112049.66;4997312;28;20561;-73
2022/11/13 04:52:45;;;;;;;8.97;8.07;;;10.40;80.40;;;-142.21;100.00;112049.66;5008009;28;20958;-72
2022/11/13 04:55:13;;;;;;;8.87;7.97;;;10.40;80.40;;;-142.21;100.00;112049.66;5006359;28;20451;-73
2022/11/13 04:57:42;;;;;;;9.87;8.40;;;10.40;80.50;;;-142.21;100.00;112049.66;5009230;28;20814;-72
2022/11/13 05:00:11;;;;;;;9.00;8.10;;;10.40;80.40;;;-142.21;100.00;112049.66;4994282;28;20593;-72
2022/11/13 05:02:38;;;;;;;9.77;8.20;;;10.40;80.40;;;-142.21;100.00;112049.66;5001538;28;20529;-73
2022/11/13 05:05:06;;;;;;;9.67;8.67;;;10.40;80.20;;;-142.21;100.00;112049.66;5009181;28;20566;-72
2022/11/13 05:07:33;;;;;;;7.90;7.10;;;10.40;81.00;;;-142.21;100.00;112049.66;4997834;28;20530;-73
2022/11/13 05:10:00;;;;;;;9.73;7.90;;;10.40;80.30;;;-142.21;100.00;112049.66;5007464;28;20446;-72
2022/11/13 05:12:27;;;;;;;9.77;8.07;;;10.40;80.40;;;-142.21;100.00;112049.66;4995529;28;20852;-72
2022/11/13 05:14:55;;;;;;;9.30;7.60;;;10.40;80.40;;;-142.21;100.00;112049.66;5002672;28;20452;-72
2022/11/13 05:17:23;;;;;;;9.07;8.17;;;10.40;80.20;;;-142.21;100.00;112049.66;5000782;28;20442;-74
2022/11/13 05:19:50;;;;;;;9.07;7.83;;;10.30;80.10;;;-142.21;100.00;112049.66;4991744;28;20982;-74
2022/11/13 05:22:23;;;;;;;9.70;8.10;;;10.30;80.20;;;-142.21;100.00;112049.66;5000690;28;20478;-79
2022/11/13 05:24:51;;;;;;;9.00;7.50;;;10.30;80.30;;;-142.21;100.00;112049.66;5009304;28;20443;-74
2022/11/13 05:27:18;;;;;;;8.00;7.00;;;10.30;80.20;;;-142.21;100.00;112049.66;5005561;28;20545;-74
2022/11/13 05:29:46;;;;;;;8.27;7.30;;;10.30;80.10;;;-142.21;100.00;112049.66;5000252;28;20807;-73
2022/11/13 05:32:15;;;;;;;9.33;7.77;;;10.30;80.10;;;-142.21;100.00;112049.66;5003603;28;20457;-75
2022/11/13 05:34:42;;;;;;;9.27;7.90;;;10.20;80.00;;;-142.21;100.00;112049.66;4976023;28;20450;-73
2022/11/13 05:37:09;;;;;;;9.77;7.40;;;10.30;80.10;;;-142.21;100.00;112049.66;5015823;28;20870;-72
2022/11/13 05:39:36;;;;;;;8.47;7.57;;;10.20;80.00;;;-142.21;100.00;112049.66;5026657;28;20567;-72
2022/11/13 05:42:05;;;;;;;9.57;7.87;;;10.20;80.10;;;-142.21;100.00;112049.66;5008013;28;20545;-73
2022/11/13 05:44:33;;;;;;;9.07;8.00;;;10.20;80.10;;;-142.21;100.00;112049.66;5010643;28;20449;-73
2022/11/13 05:47:00;;;;;;;10.93;8.20;;;10.20;80.10;;;-142.21;100.00;112049.66;5011094;28;20974;-73
2022/11/13 05:49:28;;;;;;;8.33;7.13;;;10.30;80.20;;;-142.21;100.00;112049.66;4990825;28;20450;-72
2022/11/13 05:51:55;;;;;;;10.13;8.37;;;10.20;80.10;;;-142.21;100.00;112049.66;4999162;28;20450;-72
2022/11/13 05:54:22;;;;;;;9.63;8.10;;;10.20;80.20;;;-142.21;100.00;112049.66;4982843;28;20454;-72
2022/11/13 05:56:49;;;;;;;10.23;8.33;;;10.20;80.20;;;-142.21;100.00;112049.66;4993672;28;20450;-73
2022/11/13 05:59:16;;;;;;;8.27;7.40;;;10.20;80.30;;;-142.21;100.00;112049.66;4992309;28;20479;-72
2022/11/13 06:01:43;;;;;;;9.60;8.00;;;10.20;80.50;;;-142.21;100.00;112049.66;4996040;28;20450;-73
2022/11/13 06:04:11;;;;;;;11.20;8.80;;;10.20;80.50;;;-142.21;100.00;112049.66;4993014;28;20554;-73
2022/11/13 06:06:40;;;;;;;10.90;8.07;;;10.20;80.60;;;-142.21;100.00;112049.66;4992938;28;20451;-74
2022/11/13 06:09:07;;;;;;;9.10;8.20;;;10.20;80.30;;;-142.21;100.00;112049.66;4992220;28;20451;-73
2022/11/13 06:11:35;;;;;;;10.83;8.73;;;10.20;80.20;;;-142.21;100.00;112049.66;5000151;28;20485;-74
2022/11/13 06:14:02;;;;;;;10.47;8.67;;;10.30;80.50;;;-142.21;100.00;112049.66;5005830;28;20450;-74
2022/11/13 06:16:34;;;;;;;10.13;8.63;;;10.20;80.20;;;-142.21;100.00;112049.66;4993611;28;20447;-74
2022/11/13 06:19:04;;;;;;;9.57;8.50;;;10.20;80.10;;;-142.21;100.00;112049.66;5004408;28;20478;-74
2022/11/13 06:21:34;;;;;;;9.03;8.00;;;10.20;80.10;;;-142.21;100.00;112049.66;4995636;28;20500;-74
2022/11/13 06:24:04;;;;;;;8.67;7.77;;;10.20;80.30;;;-142.21;100.00;112049.66;4991827;28;20827;-74
2022/11/13 06:26:33;;;;;;;9.63;7.40;;;10.20;80.10;;;-142.21;100.00;112049.66;4992910;28;21523;-74
2022/11/13 06:29:03;;;;;;;9.97;7.97;;;10.20;80.10;;;-142.21;100.00;112049.66;4995154;28;20473;-74
2022/11/13 06:31:33;;;;;;;10.27;7.20;;;10.20;80.10;;;-142.21;100.00;112049.66;4996637;28;20454;-74
2022/11/13 06:34:01;;;;;;;8.13;6.97;;;10.20;79.80;;;-142.21;100.00;112049.66;5006283;28;20541;-74
2022/11/13 06:36:31;;;;;;;8.50;7.60;;;10.10;79.50;;;-142.21;100.00;112049.66;4991310;28;20451;-74
2022/11/13 06:38:59;;;;;;;8.50;7.60;;;10.10;79.50;;;-142.21;100.00;112049.66;4996455;28;20481;-74
2022/11/13 06:41:30;;;;;;;8.63;7.40;;;10.10;79.70;;;-142.21;100.00;112049.66;5001282;28;20454;-73
2022/11/13 06:43:58;;;;;;;8.57;7.67;;;10.10;79.30;;;-142.21;100.00;112049.66;4998825;28;20451;-74
2022/11/13 06:46:28;;;;;;;8.47;7.67;;;10.10;79.20;;;-142.21;100.00;112049.66;5012749;28;20821;-74
2022/11/13 06:48:56;;;;;;;8.17;7.33;;;10.10;79.20;;;-142.21;100.00;112049.66;5007690;28;20886;-74
2022/11/13 06:51:27;;;;;;;8.57;7.67;;;10.10;79.20;;;-142.21;100.00;112049.66;5005759;28;20453;-74
2022/11/13 06:53:55;;;;;;;8.87;7.97;;;10.10;79.20;;;-142.21;100.00;112049.66;5013981;28;20787;-74
2022/11/13 06:56:23;;;;;;;9.47;7.97;;;10.00;79.10;;;-142.21;100.00;112049.66;5005850;28;20449;-74
2022/11/13 06:58:51;;;;;;;7.93;7.13;;;10.00;79.10;;;-142.21;100.00;112049.66;4982371;28;20442;-74
2022/11/13 07:01:21;;;;;;;7.80;6.87;;;10.00;79.80;;;-142.21;100.00;112049.66;5008399;28;20465;-73
2022/11/13 07:03:49;;;;;;;7.77;6.97;;;10.10;78.80;;;-142.21;100.00;112049.66;4995227;28;20543;-74
2022/11/13 07:06:19;;;;;;;7.67;6.87;;;10.10;78.70;;;-142.21;100.00;112049.66;4997801;28;20459;-74
2022/11/13 07:08:47;;;;;;;9.67;7.17;;;10.00;78.50;;;-142.21;100.00;112049.66;4996968;28;20932;-74
2022/11/13 07:11:18;;;;;;;8.23;7.43;;;9.90;79.70;;;-142.21;100.00;112049.66;4997231;28;20855;-74
2022/11/13 07:13:46;;;;;;;8.20;7.27;;;10.00;78.90;;;-142.21;100.00;112049.66;5007070;28;20469;-74
2022/11/13 07:16:16;;;;;;;8.27;7.30;;;10.00;79.10;;;-142.21;100.00;112049.66;5004923;28;20529;-73
2022/11/13 07:18:44;;;;;;;7.97;7.17;;;9.90;80.20;;;-142.21;100.00;112049.66;5009357;28;20942;-73
2022/11/13 07:21:13;;;;;;;7.90;7.10;;;9.90;80.20;;;-142.21;100.00;112049.66;5011376;28;20442;-74
2022/11/13 07:23:42;;;;;;;7.90;7.10;;;9.90;80.20;;;-142.21;100.00;112049.66;5006881;28;20798;-74
2022/11/13 07:26:10;;;;;;;7.63;6.93;;;9.90;80.10;;;-142.21;100.00;112049.66;4993392;28;21024;-73
2022/11/13 07:28:38;;;;;;;8.17;7.37;;;9.90;80.20;;;-142.21;100.00;112049.66;5018108;28;20453;-74
2022/11/13 07:31:07;;;;;;;7.33;6.63;;;9.90;80.20;;;-142.21;100.00;112049.66;5005922;28;20442;-74
2022/11/13 07:33:35;;;;;;;7.87;7.07;;;10.00;79.10;;;-142.21;100.00;112049.66;5008382;28;20446;-75
2022/11/13 07:36:03;;;;;;;8.40;7.60;;;9.90;80.10;;;-142.21;100.00;112049.66;4995179;28;20545;-74
2022/11/13 07:38:30;;;;;;;8.93;8.03;;;10.00;79.10;;;-142.21;100.00;112049.66;4994296;28;20443;-74
2022/11/13 07:40:59;;;;;;;9.20;7.70;;;10.00;79.10;;;-142.21;100.00;112049.66;5011669;28;20478;-74
2022/11/13 07:43:26;;;;;;;7.80;7.00;;;10.00;79.10;;;-142.21;100.00;112049.66;5008049;28;21062;-74
2022/11/13 07:45:54;;;;;;;7.73;6.90;;;10.00;79.10;;;-142.21;100.00;112049.66;5002867;28;20546;-74
2022/11/13 07:48:22;;;;;;;8.17;7.37;;;10.00;78.90;;;-142.21;100.00;112049.66;4994135;28;20803;-74
2022/11/13 07:50:51;;;;;;;8.10;7.30;;;10.00;79.10;;;-142.21;100.00;112049.66;5009432;28;20446;-74
2022/11/13 07:53:20;;;;;;;7.60;6.80;;;10.00;78.90;;;-142.21;100.00;112049.66;5010149;28;20442;-73
2022/11/13 07:55:47;;;;;;;7.07;6.37;;;10.00;78.90;;;-142.21;100.00;112049.66;5011231;28;20442;-74
2022/11/13 07:58:15;;;;;;;7.40;6.53;;;10.00;79.00;;;-142.21;100.00;112049.66;5011809;28;20538;-75
2022/11/13 08:00:42;;;;;;;8.47;7.57;;;10.00;78.70;;;-142.21;100.00;112049.66;4981746;28;20486;-74
2022/11/13 08:03:13;;;;;;;7.93;7.13;;;10.00;79.10;;;-142.21;100.00;112049.66;5012000;28;20518;-74
2022/11/13 08:05:41;;;;;;;9.77;8.73;;;10.10;79.20;;;-142.21;100.00;112049.66;5010370;28;20546;-75
2022/11/13 08:08:13;;;;;;;8.87;7.97;;;10.10;79.10;;;-142.21;100.00;112049.66;5009847;28;20529;-74
2022/11/13 08:10:40;;;;;;;7.87;7.07;;;10.10;79.10;;;-142.21;100.00;112049.66;4995427;28;20522;-74
2022/11/13 08:13:10;;;;;;;7.63;6.60;;;10.10;79.00;;;-142.21;100.00;112049.66;4995666;28;20545;-74
2022/11/13 08:15:38;;;;;;;7.60;6.80;;;10.10;79.10;;;-142.21;100.00;112049.66;5011215;28;20549;-74
2022/11/13 08:18:06;;;;;;;8.23;7.33;;;10.10;79.00;;;-142.21;100.00;112049.66;5009484;28;20446;-75
2022/11/13 08:20:33;;;;;;;7.90;7.07;;;10.20;79.20;;;-142.21;100.00;112049.66;5006175;28;20528;-75
2022/11/13 08:23:03;;;;;;;7.37;6.67;;;10.20;78.80;;;-142.21;100.00;112049.66;5014040;28;20470;-74
2022/11/13 08:25:33;;;;;;;7.43;6.73;;;10.20;78.70;;;-142.21;100.00;112049.66;5008092;28;20529;-74
2022/11/13 08:28:00;;;;;;;7.53;6.60;;;10.30;78.60;;;-142.21;100.00;112049.66;5003130;28;20451;-74
2022/11/13 08:30:29;;;;;;;7.77;6.97;;;10.30;78.30;;;-142.21;100.00;112049.66;4999053;28;20525;-75
2022/11/13 08:32:56;;;;;;;7.10;6.40;;;10.30;78.50;;;-142.21;100.00;112049.66;5000361;28;20447;-75
2022/11/13 08:35:24;;;;;;;7.03;6.10;;;10.40;78.10;;;-142.21;100.00;112049.66;5010485;28;20447;-74
2022/11/13 08:37:51;;;;;;;7.20;6.50;;;10.50;78.00;;;-142.21;100.00;112049.66;5004508;28;20506;-74
2022/11/13 08:40:19;;;;;;;7.60;6.80;;;10.50;77.90;;;-142.21;100.00;112049.66;4997349;28;20525;-74
2022/11/13 08:42:47;;;;;;;7.47;6.77;;;10.60;77.80;;;-142.21;100.00;112049.66;4992646;28;20539;-74
2022/11/13 08:45:15;;;;;;;8.20;7.40;;;10.60;77.60;;;-142.21;100.00;112049.66;4993677;28;20451;-75
2022/11/13 08:47:42;;;;;;;7.30;6.60;;;10.60;77.50;;;-142.21;100.00;112049.66;5003142;28;20542;-74
2022/11/13 08:50:10;;;;;;;7.43;6.63;;;10.70;77.30;;;-142.21;100.00;112049.66;5001932;28;20967;-74
2022/11/13 08:52:37;;;;;;;8.10;7.30;;;10.70;77.20;;;-142.21;100.00;112049.66;4995234;28;20534;-74
2022/11/13 08:55:06;;;;;;;7.90;7.13;;;10.70;77.10;;;-142.21;100.00;112049.66;4995000;28;20498;-75
2022/11/13 08:57:33;;;;;;;6.93;6.23;;;10.70;77.10;;;-142.21;100.00;112049.66;4995378;28;20561;-75
2022/11/13 09:00:02;;;;;;;6.90;6.30;;;10.80;77.20;;;-142.21;100.00;112049.66;5009652;28;21029;-75
2022/11/13 09:02:29;;;;;;;7.30;6.40;;;10.80;77.10;;;-142.21;100.00;112049.66;4998431;28;20481;-75
2022/11/13 09:04:56;;;;;;;7.77;7.03;;;10.80;76.80;;;-142.21;100.00;112049.66;5010820;28;20474;-75
2022/11/13 09:07:23;;;;;;;7.13;6.43;;;10.90;76.70;;;-142.21;100.00;112049.66;4999045;28;20458;-75
2022/11/13 09:09:50;;;;;;;7.73;6.60;;;11.00;76.70;;;-142.21;100.00;112049.66;5005923;28;20526;-75
2022/11/13 09:12:18;;;;;;;7.23;6.53;;;11.00;76.30;;;-142.21;100.00;112049.66;5005947;28;20564;-75
2022/11/13 09:14:45;;;;;;;7.10;6.40;;;11.10;76.00;;;-142.21;100.00;112049.66;5011156;28;20472;-75
2022/11/13 09:17:13;;;;;;;8.13;5.77;;;11.20;76.10;;;-142.21;100.00;112049.66;5006336;28;20872;-75
2022/11/13 09:19:41;;;;;;;6.50;5.73;;;11.30;76.10;;;-142.21;100.00;112049.66;5009257;28;20526;-71
2022/11/13 09:22:09;;;;;;;8.63;7.30;;;11.30;75.80;;;-142.21;100.00;112049.66;5011142;28;20451;-71
2022/11/13 09:24:36;;;;;;;7.10;6.40;;;11.40;75.50;;;-142.21;100.00;112049.66;5010361;28;20453;-71
2022/11/13 09:27:03;;;;;;;8.33;7.37;;;11.50;75.30;;;-142.21;100.00;112049.66;5011016;28;20497;-71
2022/11/13 09:29:30;;;;;;;7.30;6.60;;;11.70;75.50;;;-142.21;100.00;112049.66;5010376;28;20489;-71
2022/11/13 09:31:57;;;;;;;6.13;5.53;;;11.90;74.90;;;-142.21;100.00;112049.66;5011492;28;20501;-71
2022/11/13 09:34:27;;;;;;;6.43;5.83;;;12.20;74.70;;;-142.21;100.00;112049.66;5010977;28;20454;-71
2022/11/13 09:36:54;;;;;;;5.30;4.80;;;12.40;73.90;;;-142.21;100.00;112049.66;5010683;28;20974;-71
2022/11/13 09:39:22;;;;;;;6.07;5.57;;;12.50;73.00;;;-142.21;100.00;112049.66;5010174;28;20489;-71
2022/11/13 09:41:56;;;;;;;5.77;5.27;;;12.50;72.10;;;-142.21;100.00;112049.66;5011099;28;20482;-71
2022/11/13 09:44:34;;;;;;;5.70;5.20;;;12.50;71.60;;;-142.21;100.00;112049.66;5010763;28;20922;-72
2022/11/13 09:47:12;;;;;;;6.23;5.63;;;12.50;71.50;;;-142.21;100.00;112049.66;5010361;28;20525;-72
2022/11/13 09:49:46;;;;;;;5.23;4.77;;;12.60;71.70;;;-142.21;100.00;112049.66;5010517;28;20486;-71
2022/11/13 09:52:20;;;;;;;6.00;5.40;;;12.60;71.40;;;-142.21;100.00;112049.66;5011369;28;20446;-71
2022/11/13 09:54:47;;;;;;;6.40;5.67;;;12.60;71.30;;;-142.21;100.00;112049.66;5011004;28;20521;-70
2022/11/13 09:57:34;;;;;;;5.47;4.97;;;12.50;71.60;;;-142.21;100.00;112049.66;5010023;28;20492;-71
2022/11/13 10:00:05;;;;;;;5.67;5.17;;;12.60;71.30;;;-142.21;100.00;112049.66;5011082;28;20470;-71